Linz, Austria
Current Conditions -  °F | °C
As of 6:20 PM on Monday 22 Dec 2014 (Local Time) from LOWL Reporting Station
Broken Clouds Broken Clouds  
Wind Chill: 41°   Ceiling: 5000
Heat Index: 45°   Visibility: 6mi
Dew Point: 34°   Wind: 6mph
Humidity: 66%   Direction: 270°W
Pressure: 30.18"   Gusts: NA
Location:  48.31°N, 14.29°E
Report Text: LOWL 221620Z 27005KT 9999 FEW040 BKN050 07/01 Q1022 NOSIG
Loading
Personal Weather Stations






























Interactive Weather Map New forecast layout! Learn more

10-Day Weather Forecast

Advertisements
Track Severe Weather on mobile